Souda — SVBH5 — position and weather

sailwx.info

Track history (hours):
 
Tides and Currents Weather Stations Pressure Air Temp Water Temp Dewpoint Dewpoint Depression Visibility Wind Speed Wind Dir Waves Ship Positions

Souda

Last reported at 2017-Nov-19 11:49 UTC. Time now 2017-Nov-21 02:46 UTC.
Position N 40°10' E 024°29'.

Length 88 m; draft 5.8 m.

Type: Tanker. MMSI: 241109000.

Date/timePositionNaut miles runAvg speedWind from/ knotsBaromVisibWave heightAir tempDewpointWater temp
2017-Nov-19 11:49N 40°10' E 024°29'3 9.8
2017-Nov-19 11:30N 40°13' E 024°29'5 9.5
2017-Nov-19 10:59N 40°18' E 024°28'4 8.7
2017-Nov-19 10:29N 40°22' E 024°27'5 8.8
2017-Nov-19 09:57N 40°27' E 024°26'4 8.9
2017-Nov-19 09:30N 40°31' E 024°26'4 8.8
2017-Nov-19 09:00N 40°35' E 024°26'5 9.3
2017-Nov-19 08:30N 40°40' E 024°26'5 9.3
2017-Nov-19 08:00N 40°45' E 024°26'5 9.3
2017-Nov-19 07:30N 40°49' E 024°28'4 9.0
2017-Nov-19 07:00N 40°53' E 024°30'4 8.5
2017-Nov-19 06:30N 40°57' E 024°33'0 0.6
2017-Nov-19 06:00N 40°57' E 024°33'0 0.0
2017-Nov-19 05:30N 40°57' E 024°33'0 0.0
2017-Nov-19 05:00N 40°57' E 024°33'0 0.0
2017-Nov-19 04:30N 40°57' E 024°33'0 0.0
2017-Nov-19 04:00N 40°57' E 024°33'0 0.0
2017-Nov-19 03:30N 40°57' E 024°33'0 0.0
2017-Nov-19 03:00N 40°57' E 024°33'0 0.0
2017-Nov-19 02:30N 40°57' E 024°33'0 0.0
2017-Nov-19 02:00N 40°57' E 024°33'0 0.0
2017-Nov-19 01:30N 40°57' E 024°33'0 0.0
2017-Nov-19 01:00N 40°57' E 024°33'0 0.0
2017-Nov-19 00:30N 40°57' E 024°33'0 0.0
2017-Nov-19 00:00N 40°57' E 024°33'0 0.0
2017-Nov-18 23:30N 40°57' E 024°33'0 0.0
2017-Nov-18 23:00N 40°57' E 024°33'0 0.0
2017-Nov-18 22:30N 40°57' E 024°33'0 0.0
2017-Nov-18 22:00N 40°57' E 024°33'0 0.0
2017-Nov-18 21:30N 40°57' E 024°33'0 0.0
2017-Nov-18 21:00N 40°57' E 024°33'0 0.0
2017-Nov-18 20:30N 40°57' E 024°33'0 0.0
2017-Nov-18 20:00N 40°57' E 024°33'0 0.0
2017-Nov-18 19:30N 40°57' E 024°33'0 0.0
2017-Nov-18 19:00N 40°57' E 024°33'0 0.0
2017-Nov-18 18:30N 40°57' E 024°33'0 0.0
2017-Nov-18 18:00N 40°57' E 024°33'0 0.0
2017-Nov-18 17:30N 40°57' E 024°33'0 0.0
2017-Nov-18 17:00N 40°57' E 024°33'0 0.0
2017-Nov-18 16:30N 40°57' E 024°33'0 0.0
2017-Nov-18 16:00N 40°57' E 024°33'0 0.0
2017-Nov-18 15:30N 40°57' E 024°33'0 0.0
2017-Nov-18 15:00N 40°57' E 024°33'0 0.0
2017-Nov-18 14:30N 40°57' E 024°33'0 0.0
2017-Nov-18 14:00N 40°57' E 024°33'0 0.0
2017-Nov-18 13:30N 40°57' E 024°33'0 0.0
2017-Nov-18 13:00N 40°57' E 024°33'0 0.0
2017-Nov-18 12:30N 40°57' E 024°33'0 0.0
2017-Nov-18 12:00N 40°57' E 024°33'0 0.0
2017-Nov-18 11:30N 40°57' E 024°33'0 0.0
2017-Nov-18 11:00N 40°57' E 024°33'0 0.0
2017-Nov-18 10:27N 40°57' E 024°33'0 0.0
2017-Nov-18 10:00N 40°57' E 024°33'0 0.0
2017-Nov-18 09:24N 40°57' E 024°33'0 0.0
2017-Nov-18 09:00N 40°57' E 024°33'0 0.0
2017-Nov-18 08:30N 40°57' E 024°33'0 0.0
2017-Nov-18 08:00N 40°57' E 024°33'1 1.3
2017-Nov-18 07:30N 40°57' E 024°32'2 4.7
2017-Nov-18 07:00N 40°56' E 024°29'0 0.5
2017-Nov-18 06:30N 40°56' E 024°29'1 1.1
2017-Nov-18 06:00N 40°55' E 024°29'1 1.4
2017-Nov-18 05:30N 40°55' E 024°29'3 6.0
2017-Nov-18 05:00N 40°52' E 024°28'4 8.0
2017-Nov-18 04:30N 40°48' E 024°27'4 7.8
2017-Nov-18 04:00N 40°44' E 024°25'4 7.6
2017-Nov-18 03:30N 40°40' E 024°26'4 8.3
2017-Nov-18 03:00N 40°36' E 024°28'5 8.2
2017-Nov-18 02:24N 40°31' E 024°29'3 7.8
2017-Nov-18 01:58N 40°28' E 024°29'12 7.9
2017-Nov-18 00:26N 40°16' E 024°30'4 7.7
2017-Nov-17 23:56N 40°12' E 024°30'12 6.5
2017-Nov-17 22:05N 40°03' E 024°20'1 7.4
2017-Nov-17 22:00N 40°03' E 024°19'4 7.5
2017-Nov-17 21:30N 40°01' E 024°15'4 7.2
2017-Nov-17 21:00N 39°60' E 024°11'4 7.2
2017-Nov-17 20:30N 39°58' E 024°06'4 7.3
2017-Nov-17 20:00N 39°57' E 024°02'  
2017-Nov-14 05:42N 37°40' E 023°42'2 8.1
2017-Nov-14 05:30N 37°41' E 023°41'4 8.3
2017-Nov-14 05:00N 37°45' E 023°39'4 8.1
2017-Nov-14 04:30N 37°49' E 023°36'4 7.5
2017-Nov-14 04:00N 37°50' E 023°32'4 8.1
2017-Nov-14 03:30N 37°50' E 023°27'4 8.3
2017-Nov-14 03:00N 37°51' E 023°22'4 8.2
2017-Nov-14 02:30N 37°52' E 023°17'4 8.2
2017-Nov-14 02:00N 37°53' E 023°12'4 8.2
2017-Nov-14 01:30N 37°54' E 023°07'1 2.3
2017-Nov-14 01:00N 37°55' E 023°05'0 0.7
2017-Nov-14 00:30N 37°55' E 023°05'0 0.0
2017-Nov-14 00:00N 37°55' E 023°05'0 0.0
2017-Nov-13 23:29N 37°55' E 023°05'0 0.0
2017-Nov-13 22:59N 37°55' E 023°05'0 0.0
2017-Nov-13 22:30N 37°55' E 023°05'0 0.0
2017-Nov-13 22:00N 37°55' E 023°05'0 0.0
2017-Nov-13 01:59N 37°55' E 023°05'0 0.0
2017-Nov-13 01:29N 37°55' E 023°05'0 0.0
2017-Nov-13 00:59N 37°55' E 023°05'0 0.0
2017-Nov-13 00:29N 37°55' E 023°05'0 0.0
2017-Nov-12 23:59N 37°55' E 023°05'0 0.0
2017-Nov-12 23:29N 37°55' E 023°05'0 0.0
2017-Nov-12 22:59N 37°55' E 023°05'0 0.0
2017-Nov-12 22:29N 37°55' E 023°05'0 0.0
2017-Nov-12 21:59N 37°55' E 023°05'0 0.0
2017-Nov-12 21:29N 37°55' E 023°05'0 0.0
2017-Nov-12 20:59N 37°55' E 023°05'0 0.0
2017-Nov-12 20:29N 37°55' E 023°05'0 0.0
2017-Nov-12 19:59N 37°55' E 023°05'0 0.0
2017-Nov-12 19:29N 37°55' E 023°05'0 0.0
2017-Nov-12 18:59N 37°55' E 023°05'0 0.0
2017-Nov-12 18:29N 37°55' E 023°05'0 0.0
2017-Nov-12 17:59N 37°55' E 023°05'0 0.7
2017-Nov-12 17:30N 37°55' E 023°06'0 0.9
2017-Nov-12 17:00N 37°55' E 023°06'0 0.0
2017-Nov-12 16:30N 37°55' E 023°06'0 0.1
2017-Nov-12 16:00N 37°55' E 023°06'0 0.0
2017-Nov-12 15:30N 37°55' E 023°06'0 0.0
2017-Nov-12 15:00N 37°55' E 023°06'0 0.0
2017-Nov-12 14:30N 37°55' E 023°06'0 0.0
2017-Nov-12 14:00N 37°55' E 023°06'0 0.0
2017-Nov-12 13:30N 37°55' E 023°06'0 0.0
2017-Nov-12 13:00N 37°55' E 023°06'0 0.0
2017-Nov-12 12:30N 37°55' E 023°06'0 0.0
2017-Nov-12 12:00N 37°55' E 023°06'0 0.0
2017-Nov-12 11:30N 37°55' E 023°06'0 0.0
2017-Nov-12 11:00N 37°55' E 023°06'0 0.0
2017-Nov-12 10:30N 37°55' E 023°06'0 0.0
2017-Nov-12 10:00N 37°55' E 023°06'0 0.0
2017-Nov-12 09:30N 37°55' E 023°06'0 0.0
2017-Nov-12 09:00N 37°55' E 023°06'0 0.0
2017-Nov-12 08:30N 37°55' E 023°06'0 0.0
2017-Nov-12 08:00N 37°55' E 023°06'0 0.0
2017-Nov-12 07:30N 37°55' E 023°06'0 0.1
2017-Nov-12 07:00N 37°55' E 023°06'0 0.0
2017-Nov-12 06:30N 37°55' E 023°06'0 0.0
2017-Nov-12 06:00N 37°55' E 023°06'0 0.0
2017-Nov-12 05:30N 37°55' E 023°06'0 0.0
2017-Nov-12 05:00N 37°55' E 023°06'0 0.0
2017-Nov-12 04:30N 37°55' E 023°06'0 0.0
2017-Nov-12 04:00N 37°55' E 023°06'0 0.0
2017-Nov-12 03:30N 37°55' E 023°06'0 0.0
2017-Nov-12 03:00N 37°55' E 023°06'0 0.1
2017-Nov-12 02:30N 37°55' E 023°06'0 0.0
2017-Nov-12 02:00N 37°55' E 023°06'0 0.1
2017-Nov-12 01:30N 37°55' E 023°06'0 0.1
2017-Nov-12 01:00N 37°55' E 023°06'0 0.0
2017-Nov-12 00:30N 37°55' E 023°06'0 0.1
2017-Nov-12 00:00N 37°55' E 023°06'0 0.0
2017-Nov-11 23:30N 37°55' E 023°06'0 0.1
2017-Nov-11 23:00N 37°55' E 023°06'0 0.1
2017-Nov-11 22:30N 37°55' E 023°06'0 0.0
2017-Nov-11 22:00N 37°55' E 023°06'0 0.0
2017-Nov-11 21:30N 37°55' E 023°06'0 0.1
2017-Nov-11 21:00N 37°55' E 023°06'0 0.0
2017-Nov-11 20:30N 37°55' E 023°06'0 0.1
2017-Nov-11 20:00N 37°55' E 023°06'0 0.0
2017-Nov-11 19:30N 37°55' E 023°06'0 0.1
2017-Nov-11 19:00N 37°55' E 023°06'1 2.1
2017-Nov-11 18:30N 37°54' E 023°08'5 9.3
2017-Nov-11 18:00N 37°53' E 023°13'5 9.3
2017-Nov-11 17:30N 37°52' E 023°19'5 9.4
2017-Nov-11 17:00N 37°51' E 023°25'5 9.4
2017-Nov-11 16:30N 37°51' E 023°31'4 8.5
2017-Nov-11 16:00N 37°54' E 023°34'3 6.4
2017-Nov-11 15:30N 37°57' E 023°35'0 0.0
2017-Nov-11 15:00N 37°57' E 023°35'0 0.0
2017-Nov-11 14:30N 37°57' E 023°35'0 0.0
2017-Nov-11 14:00N 37°57' E 023°35'0 0.0
2017-Nov-11 13:30N 37°57' E 023°35'0 0.0
2017-Nov-11 13:00N 37°57' E 023°35'0 0.0
2017-Nov-11 12:30N 37°57' E 023°35'0 0.0
2017-Nov-11 12:00N 37°57' E 023°35'0 0.0
2017-Nov-11 11:30N 37°57' E 023°35'0 0.0
2017-Nov-11 11:00N 37°57' E 023°35'0 0.0
2017-Nov-11 10:30N 37°57' E 023°35'0 0.0
2017-Nov-11 10:00N 37°57' E 023°35'0 0.0
2017-Nov-11 09:30N 37°57' E 023°35'0 0.0
2017-Nov-11 09:00N 37°57' E 023°35'0 0.0
2017-Nov-11 08:30N 37°57' E 023°35'0 0.0
2017-Nov-11 08:00N 37°57' E 023°35'0 0.0
2017-Nov-11 07:30N 37°57' E 023°35'0 0.0
2017-Nov-11 07:00N 37°57' E 023°35'0 0.0
2017-Nov-11 06:30N 37°57' E 023°35'0 0.0
2017-Nov-11 06:00N 37°57' E 023°35'0 0.0
2017-Nov-11 05:30N 37°57' E 023°35'0 0.0
2017-Nov-11 05:00N 37°57' E 023°35'0 0.0
2017-Nov-11 04:30N 37°57' E 023°35'0 0.0
2017-Nov-11 04:00N 37°57' E 023°35'0 0.0
2017-Nov-11 03:30N 37°57' E 023°35'0 0.0
2017-Nov-11 03:00N 37°57' E 023°35'0 0.0
2017-Nov-11 02:30N 37°57' E 023°35'0 0.0
2017-Nov-11 02:00N 37°57' E 023°35'0 0.0
2017-Nov-11 01:30N 37°57' E 023°35'0 0.0
2017-Nov-11 01:00N 37°57' E 023°35'0 0.0
2017-Nov-11 00:30N 37°57' E 023°35'0 0.0
2017-Nov-11 00:00N 37°57' E 023°35'0 0.0
2017-Nov-10 23:30N 37°57' E 023°35'0 0.0
2017-Nov-10 23:00N 37°57' E 023°35'0 0.0
2017-Nov-10 22:30N 37°57' E 023°35'0 0.0
2017-Nov-10 22:00N 37°57' E 023°35'0 0.0
2017-Nov-10 21:30N 37°57' E 023°35'0 0.0
2017-Nov-10 21:00N 37°57' E 023°35'0 0.0
2017-Nov-10 20:30N 37°57' E 023°35'0 0.0
2017-Nov-10 20:00N 37°57' E 023°35'0 0.0
2017-Nov-10 19:30N 37°57' E 023°35'0 0.0
2017-Nov-10 19:00N 37°57' E 023°35'0 0.0
2017-Nov-10 18:30N 37°57' E 023°35'0 0.0
2017-Nov-10 18:00N 37°57' E 023°35'0 0.0
2017-Nov-10 17:30N 37°57' E 023°35'0 0.0
2017-Nov-10 17:00N 37°57' E 023°35'0 0.0
2017-Nov-10 16:30N 37°57' E 023°35'0 0.0
2017-Nov-10 16:00N 37°57' E 023°35'0 0.0
2017-Nov-10 15:30N 37°57' E 023°35'0 0.0
2017-Nov-10 15:00N 37°57' E 023°35'0 0.0
2017-Nov-10 14:30N 37°57' E 023°35'0 0.0
2017-Nov-10 14:00N 37°57' E 023°35'0 0.0
2017-Nov-10 13:30N 37°57' E 023°35'0 0.0
2017-Nov-10 13:00N 37°57' E 023°35'0 0.0
2017-Nov-10 12:30N 37°57' E 023°35'0 0.0
2017-Nov-10 12:00N 37°57' E 023°35'0 0.0
2017-Nov-10 11:30N 37°57' E 023°35'0 0.0
2017-Nov-10 11:00N 37°57' E 023°35'0 0.0
2017-Nov-10 10:24N 37°57' E 023°35'0 0.0
2017-Nov-10 10:00N 37°57' E 023°35'0 0.0
2017-Nov-10 09:30N 37°57' E 023°35'0 0.0
2017-Nov-10 09:00N 37°57' E 023°35'0 0.0
2017-Nov-10 08:30N 37°57' E 023°35'0 0.3
2017-Nov-10 08:00N 37°57' E 023°35'2 3.6
2017-Nov-10 07:30N 37°55' E 023°35'2 4.2
2017-Nov-10 07:00N 37°53' E 023°34'4 8.0
2017-Nov-10 06:30N 37°50' E 023°31'4 8.8
2017-Nov-10 06:00N 37°51' E 023°26'4 8.8
2017-Nov-10 05:30N 37°52' E 023°20'4 9.0
2017-Nov-10 05:00N 37°53' E 023°15'4 8.9
2017-Nov-10 04:30N 37°54' E 023°09'3 6.5
2017-Nov-10 03:59N 37°55' E 023°05'0 0.1
2017-Nov-10 03:29N 37°55' E 023°05'0 0.0
2017-Nov-10 02:59N 37°55' E 023°05'0 0.0
2017-Nov-10 02:29N 37°55' E 023°05'0 0.0
2017-Nov-10 01:59N 37°55' E 023°05'0 0.0
2017-Nov-10 01:29N 37°55' E 023°05'0 0.0
2017-Nov-10 00:59N 37°55' E 023°05'0 0.0
2017-Nov-10 00:29N 37°55' E 023°05'0 0.0
2017-Nov-09 23:59N 37°55' E 023°05'0 0.0
2017-Nov-09 23:29N 37°55' E 023°05'0 0.0
2017-Nov-09 22:59N 37°55' E 023°05'0 0.0
2017-Nov-09 22:29N 37°55' E 023°05'0 0.0
2017-Nov-09 21:59N 37°55' E 023°05'0 0.0
2017-Nov-09 21:29N 37°55' E 023°05'0 0.0
2017-Nov-09 20:59N 37°55' E 023°05'0 0.0
2017-Nov-09 20:29N 37°55' E 023°05'0 0.0
2017-Nov-09 19:59N 37°55' E 023°05'0 0.0
2017-Nov-09 19:29N 37°55' E 023°05'0 0.0
2017-Nov-09 18:59N 37°55' E 023°05'0 0.0
2017-Nov-09 18:29N 37°55' E 023°05'0 0.0
2017-Nov-09 17:59N 37°55' E 023°05'0 0.0
2017-Nov-09 17:29N 37°55' E 023°05'0 0.0
2017-Nov-09 16:59N 37°55' E 023°05'0 0.0
2017-Nov-09 16:29N 37°55' E 023°05'0 0.0
2017-Nov-09 15:59N 37°55' E 023°05'0 0.0
2017-Nov-09 15:29N 37°55' E 023°05'0 0.0
2017-Nov-09 14:59N 37°55' E 023°05'0 0.0
2017-Nov-09 14:29N 37°55' E 023°05'0 0.0
2017-Nov-09 13:59N 37°55' E 023°05'0 0.0
2017-Nov-09 13:29N 37°55' E 023°05'0 0.0
2017-Nov-09 12:59N 37°55' E 023°05'0 0.0
2017-Nov-09 12:29N 37°55' E 023°05'0 0.0
2017-Nov-09 11:59N 37°55' E 023°05'  
Track history (hours):
 
Tides and Currents Weather Stations Pressure Air Temp Water Temp Dewpoint Dewpoint Depression Visibility Wind Speed Wind Dir Waves Ship Positions

Souda

Last reported at 2017-Nov-19 11:49 UTC. Time now 2017-Nov-21 02:46 UTC.
Position N 40°10' E 024°29'.

Length 88 m; draft 5.8 m.

Type: Tanker. MMSI: 241109000.

Date/timePositionNaut miles runAvg speedWind from/ knotsBaromVisibWave heightAir tempDewpointWater temp
2017-Nov-19 11:49N 40°10' E 024°29'3 9.8
2017-Nov-19 11:30N 40°13' E 024°29'5 9.5
2017-Nov-19 10:59N 40°18' E 024°28'4 8.7
2017-Nov-19 10:29N 40°22' E 024°27'5 8.8
2017-Nov-19 09:57N 40°27' E 024°26'4 8.9
2017-Nov-19 09:30N 40°31' E 024°26'4 8.8
2017-Nov-19 09:00N 40°35' E 024°26'5 9.3
2017-Nov-19 08:30N 40°40' E 024°26'5 9.3
2017-Nov-19 08:00N 40°45' E 024°26'5 9.3
2017-Nov-19 07:30N 40°49' E 024°28'4 9.0
2017-Nov-19 07:00N 40°53' E 024°30'4 8.5
2017-Nov-19 06:30N 40°57' E 024°33'0 0.6
2017-Nov-19 06:00N 40°57' E 024°33'0 0.0
2017-Nov-19 05:30N 40°57' E 024°33'0 0.0
2017-Nov-19 05:00N 40°57' E 024°33'0 0.0
2017-Nov-19 04:30N 40°57' E 024°33'0 0.0
2017-Nov-19 04:00N 40°57' E 024°33'0 0.0
2017-Nov-19 03:30N 40°57' E 024°33'0 0.0
2017-Nov-19 03:00N 40°57' E 024°33'0 0.0
2017-Nov-19 02:30N 40°57' E 024°33'0 0.0
2017-Nov-19 02:00N 40°57' E 024°33'0 0.0
2017-Nov-19 01:30N 40°57' E 024°33'0 0.0
2017-Nov-19 01:00N 40°57' E 024°33'0 0.0
2017-Nov-19 00:30N 40°57' E 024°33'0 0.0
2017-Nov-19 00:00N 40°57' E 024°33'0 0.0
2017-Nov-18 23:30N 40°57' E 024°33'0 0.0
2017-Nov-18 23:00N 40°57' E 024°33'0 0.0
2017-Nov-18 22:30N 40°57' E 024°33'0 0.0
2017-Nov-18 22:00N 40°57' E 024°33'0 0.0
2017-Nov-18 21:30N 40°57' E 024°33'0 0.0
2017-Nov-18 21:00N 40°57' E 024°33'0 0.0
2017-Nov-18 20:30N 40°57' E 024°33'0 0.0
2017-Nov-18 20:00N 40°57' E 024°33'0 0.0
2017-Nov-18 19:30N 40°57' E 024°33'0 0.0
2017-Nov-18 19:00N 40°57' E 024°33'0 0.0
2017-Nov-18 18:30N 40°57' E 024°33'0 0.0
2017-Nov-18 18:00N 40°57' E 024°33'0 0.0
2017-Nov-18 17:30N 40°57' E 024°33'0 0.0
2017-Nov-18 17:00N 40°57' E 024°33'0 0.0
2017-Nov-18 16:30N 40°57' E 024°33'0 0.0
2017-Nov-18 16:00N 40°57' E 024°33'0 0.0
2017-Nov-18 15:30N 40°57' E 024°33'0 0.0
2017-Nov-18 15:00N 40°57' E 024°33'0 0.0
2017-Nov-18 14:30N 40°57' E 024°33'0 0.0
2017-Nov-18 14:00N 40°57' E 024°33'0 0.0
2017-Nov-18 13:30N 40°57' E 024°33'0 0.0
2017-Nov-18 13:00N 40°57' E 024°33'0 0.0
2017-Nov-18 12:30N 40°57' E 024°33'0 0.0
2017-Nov-18 12:00N 40°57' E 024°33'0 0.0
2017-Nov-18 11:30N 40°57' E 024°33'0 0.0
2017-Nov-18 11:00N 40°57' E 024°33'0 0.0
2017-Nov-18 10:27N 40°57' E 024°33'0 0.0
2017-Nov-18 10:00N 40°57' E 024°33'0 0.0
2017-Nov-18 09:24N 40°57' E 024°33'0 0.0
2017-Nov-18 09:00N 40°57' E 024°33'0 0.0
2017-Nov-18 08:30N 40°57' E 024°33'0 0.0
2017-Nov-18 08:00N 40°57' E 024°33'1 1.3
2017-Nov-18 07:30N 40°57' E 024°32'2 4.7
2017-Nov-18 07:00N 40°56' E 024°29'0 0.5
2017-Nov-18 06:30N 40°56' E 024°29'1 1.1
2017-Nov-18 06:00N 40°55' E 024°29'1 1.4
2017-Nov-18 05:30N 40°55' E 024°29'3 6.0
2017-Nov-18 05:00N 40°52' E 024°28'4 8.0
2017-Nov-18 04:30N 40°48' E 024°27'4 7.8
2017-Nov-18 04:00N 40°44' E 024°25'4 7.6
2017-Nov-18 03:30N 40°40' E 024°26'4 8.3
2017-Nov-18 03:00N 40°36' E 024°28'5 8.2
2017-Nov-18 02:24N 40°31' E 024°29'3 7.8
2017-Nov-18 01:58N 40°28' E 024°29'12 7.9
2017-Nov-18 00:26N 40°16' E 024°30'4 7.7
2017-Nov-17 23:56N 40°12' E 024°30'12 6.5
2017-Nov-17 22:05N 40°03' E 024°20'1 7.4
2017-Nov-17 22:00N 40°03' E 024°19'4 7.5
2017-Nov-17 21:30N 40°01' E 024°15'4 7.2
2017-Nov-17 21:00N 39°60' E 024°11'4 7.2
2017-Nov-17 20:30N 39°58' E 024°06'4 7.3
2017-Nov-17 20:00N 39°57' E 024°02'  
2017-Nov-14 05:42N 37°40' E 023°42'2 8.1
2017-Nov-14 05:30N 37°41' E 023°41'4 8.3
2017-Nov-14 05:00N 37°45' E 023°39'4 8.1
2017-Nov-14 04:30N 37°49' E 023°36'4 7.5
2017-Nov-14 04:00N 37°50' E 023°32'4 8.1
2017-Nov-14 03:30N 37°50' E 023°27'4 8.3
2017-Nov-14 03:00N 37°51' E 023°22'4 8.2
2017-Nov-14 02:30N 37°52' E 023°17'4 8.2
2017-Nov-14 02:00N 37°53' E 023°12'4 8.2
2017-Nov-14 01:30N 37°54' E 023°07'1 2.3
2017-Nov-14 01:00N 37°55' E 023°05'0 0.7
2017-Nov-14 00:30N 37°55' E 023°05'0 0.0
2017-Nov-14 00:00N 37°55' E 023°05'0 0.0
2017-Nov-13 23:29N 37°55' E 023°05'0 0.0
2017-Nov-13 22:59N 37°55' E 023°05'0 0.0
2017-Nov-13 22:30N 37°55' E 023°05'0 0.0
2017-Nov-13 22:00N 37°55' E 023°05'0 0.0
2017-Nov-13 01:59N 37°55' E 023°05'0 0.0
2017-Nov-13 01:29N 37°55' E 023°05'0 0.0
2017-Nov-13 00:59N 37°55' E 023°05'0 0.0
2017-Nov-13 00:29N 37°55' E 023°05'0 0.0
2017-Nov-12 23:59N 37°55' E 023°05'0 0.0
2017-Nov-12 23:29N 37°55' E 023°05'0 0.0
2017-Nov-12 22:59N 37°55' E 023°05'0 0.0
2017-Nov-12 22:29N 37°55' E 023°05'0 0.0
2017-Nov-12 21:59N 37°55' E 023°05'0 0.0
2017-Nov-12 21:29N 37°55' E 023°05'0 0.0
2017-Nov-12 20:59N 37°55' E 023°05'0 0.0
2017-Nov-12 20:29N 37°55' E 023°05'0 0.0
2017-Nov-12 19:59N 37°55' E 023°05'0 0.0
2017-Nov-12 19:29N 37°55' E 023°05'0 0.0
2017-Nov-12 18:59N 37°55' E 023°05'0 0.0
2017-Nov-12 18:29N 37°55' E 023°05'0 0.0
2017-Nov-12 17:59N 37°55' E 023°05'0 0.7
2017-Nov-12 17:30N 37°55' E 023°06'0 0.9
2017-Nov-12 17:00N 37°55' E 023°06'0 0.0
2017-Nov-12 16:30N 37°55' E 023°06'0 0.1
2017-Nov-12 16:00N 37°55' E 023°06'0 0.0
2017-Nov-12 15:30N 37°55' E 023°06'0 0.0
2017-Nov-12 15:00N 37°55' E 023°06'0 0.0
2017-Nov-12 14:30N 37°55' E 023°06'0 0.0
2017-Nov-12 14:00N 37°55' E 023°06'0 0.0
2017-Nov-12 13:30N 37°55' E 023°06'0 0.0
2017-Nov-12 13:00N 37°55' E 023°06'0 0.0
2017-Nov-12 12:30N 37°55' E 023°06'0 0.0
2017-Nov-12 12:00N 37°55' E 023°06'0 0.0
2017-Nov-12 11:30N 37°55' E 023°06'0 0.0
2017-Nov-12 11:00N 37°55' E 023°06'0 0.0
2017-Nov-12 10:30N 37°55' E 023°06'0 0.0
2017-Nov-12 10:00N 37°55' E 023°06'0 0.0
2017-Nov-12 09:30N 37°55' E 023°06'0 0.0
2017-Nov-12 09:00N 37°55' E 023°06'0 0.0
2017-Nov-12 08:30N 37°55' E 023°06'0 0.0
2017-Nov-12 08:00N 37°55' E 023°06'0 0.0
2017-Nov-12 07:30N 37°55' E 023°06'0 0.1
2017-Nov-12 07:00N 37°55' E 023°06'0 0.0
2017-Nov-12 06:30N 37°55' E 023°06'0 0.0
2017-Nov-12 06:00N 37°55' E 023°06'0 0.0
2017-Nov-12 05:30N 37°55' E 023°06'0 0.0
2017-Nov-12 05:00N 37°55' E 023°06'0 0.0
2017-Nov-12 04:30N 37°55' E 023°06'0 0.0
2017-Nov-12 04:00N 37°55' E 023°06'0 0.0
2017-Nov-12 03:30N 37°55' E 023°06'0 0.0
2017-Nov-12 03:00N 37°55' E 023°06'0 0.1
2017-Nov-12 02:30N 37°55' E 023°06'0 0.0
2017-Nov-12 02:00N 37°55' E 023°06'0 0.1
2017-Nov-12 01:30N 37°55' E 023°06'0 0.1
2017-Nov-12 01:00N 37°55' E 023°06'0 0.0
2017-Nov-12 00:30N 37°55' E 023°06'0 0.1
2017-Nov-12 00:00N 37°55' E 023°06'0 0.0
2017-Nov-11 23:30N 37°55' E 023°06'0 0.1
2017-Nov-11 23:00N 37°55' E 023°06'0 0.1
2017-Nov-11 22:30N 37°55' E 023°06'0 0.0
2017-Nov-11 22:00N 37°55' E 023°06'0 0.0
2017-Nov-11 21:30N 37°55' E 023°06'0 0.1
2017-Nov-11 21:00N 37°55' E 023°06'0 0.0
2017-Nov-11 20:30N 37°55' E 023°06'0 0.1
2017-Nov-11 20:00N 37°55' E 023°06'0 0.0
2017-Nov-11 19:30N 37°55' E 023°06'0 0.1
2017-Nov-11 19:00N 37°55' E 023°06'1 2.1
2017-Nov-11 18:30N 37°54' E 023°08'5 9.3
2017-Nov-11 18:00N 37°53' E 023°13'5 9.3
2017-Nov-11 17:30N 37°52' E 023°19'5 9.4
2017-Nov-11 17:00N 37°51' E 023°25'5 9.4
2017-Nov-11 16:30N 37°51' E 023°31'4 8.5
2017-Nov-11 16:00N 37°54' E 023°34'3 6.4
2017-Nov-11 15:30N 37°57' E 023°35'0 0.0
2017-Nov-11 15:00N 37°57' E 023°35'0 0.0
2017-Nov-11 14:30N 37°57' E 023°35'0 0.0
2017-Nov-11 14:00N 37°57' E 023°35'0 0.0
2017-Nov-11 13:30N 37°57' E 023°35'0 0.0
2017-Nov-11 13:00N 37°57' E 023°35'0 0.0
2017-Nov-11 12:30N 37°57' E 023°35'0 0.0
2017-Nov-11 12:00N 37°57' E 023°35'0 0.0
2017-Nov-11 11:30N 37°57' E 023°35'0 0.0
2017-Nov-11 11:00N 37°57' E 023°35'0 0.0
2017-Nov-11 10:30N 37°57' E 023°35'0 0.0
2017-Nov-11 10:00N 37°57' E 023°35'0 0.0
2017-Nov-11 09:30N 37°57' E 023°35'0 0.0
2017-Nov-11 09:00N 37°57' E 023°35'0 0.0
2017-Nov-11 08:30N 37°57' E 023°35'0 0.0
2017-Nov-11 08:00N 37°57' E 023°35'0 0.0
2017-Nov-11 07:30N 37°57' E 023°35'0 0.0
2017-Nov-11 07:00N 37°57' E 023°35'0 0.0
2017-Nov-11 06:30N 37°57' E 023°35'0 0.0
2017-Nov-11 06:00N 37°57' E 023°35'0 0.0
2017-Nov-11 05:30N 37°57' E 023°35'0 0.0
2017-Nov-11 05:00N 37°57' E 023°35'0 0.0
2017-Nov-11 04:30N 37°57' E 023°35'0 0.0
2017-Nov-11 04:00N 37°57' E 023°35'0 0.0
2017-Nov-11 03:30N 37°57' E 023°35'0 0.0
2017-Nov-11 03:00N 37°57' E 023°35'0 0.0
2017-Nov-11 02:30N 37°57' E 023°35'0 0.0
2017-Nov-11 02:00N 37°57' E 023°35'0 0.0
2017-Nov-11 01:30N 37°57' E 023°35'0 0.0
2017-Nov-11 01:00N 37°57' E 023°35'0 0.0
2017-Nov-11 00:30N 37°57' E 023°35'0 0.0
2017-Nov-11 00:00N 37°57' E 023°35'0 0.0
2017-Nov-10 23:30N 37°57' E 023°35'0 0.0
2017-Nov-10 23:00N 37°57' E 023°35'0 0.0
2017-Nov-10 22:30N 37°57' E 023°35'0 0.0
2017-Nov-10 22:00N 37°57' E 023°35'0 0.0
2017-Nov-10 21:30N 37°57' E 023°35'0 0.0
2017-Nov-10 21:00N 37°57' E 023°35'0 0.0
2017-Nov-10 20:30N 37°57' E 023°35'0 0.0
2017-Nov-10 20:00N 37°57' E 023°35'0 0.0
2017-Nov-10 19:30N 37°57' E 023°35'0 0.0
2017-Nov-10 19:00N 37°57' E 023°35'0 0.0
2017-Nov-10 18:30N 37°57' E 023°35'0 0.0
2017-Nov-10 18:00N 37°57' E 023°35'0 0.0
2017-Nov-10 17:30N 37°57' E 023°35'0 0.0
2017-Nov-10 17:00N 37°57' E 023°35'0 0.0
2017-Nov-10 16:30N 37°57' E 023°35'0 0.0
2017-Nov-10 16:00N 37°57' E 023°35'0 0.0
2017-Nov-10 15:30N 37°57' E 023°35'0 0.0
2017-Nov-10 15:00N 37°57' E 023°35'0 0.0
2017-Nov-10 14:30N 37°57' E 023°35'0 0.0
2017-Nov-10 14:00N 37°57' E 023°35'0 0.0
2017-Nov-10 13:30N 37°57' E 023°35'0 0.0
2017-Nov-10 13:00N 37°57' E 023°35'0 0.0
2017-Nov-10 12:30N 37°57' E 023°35'0 0.0
2017-Nov-10 12:00N 37°57' E 023°35'0 0.0
2017-Nov-10 11:30N 37°57' E 023°35'0 0.0
2017-Nov-10 11:00N 37°57' E 023°35'0 0.0
2017-Nov-10 10:24N 37°57' E 023°35'0 0.0
2017-Nov-10 10:00N 37°57' E 023°35'0 0.0
2017-Nov-10 09:30N 37°57' E 023°35'0 0.0
2017-Nov-10 09:00N 37°57' E 023°35'0 0.0
2017-Nov-10 08:30N 37°57' E 023°35'0 0.3
2017-Nov-10 08:00N 37°57' E 023°35'2 3.6
2017-Nov-10 07:30N 37°55' E 023°35'2 4.2
2017-Nov-10 07:00N 37°53' E 023°34'4 8.0
2017-Nov-10 06:30N 37°50' E 023°31'4 8.8
2017-Nov-10 06:00N 37°51' E 023°26'4 8.8
2017-Nov-10 05:30N 37°52' E 023°20'4 9.0
2017-Nov-10 05:00N 37°53' E 023°15'4 8.9
2017-Nov-10 04:30N 37°54' E 023°09'3 6.5
2017-Nov-10 03:59N 37°55' E 023°05'0 0.1
2017-Nov-10 03:29N 37°55' E 023°05'0 0.0
2017-Nov-10 02:59N 37°55' E 023°05'0 0.0
2017-Nov-10 02:29N 37°55' E 023°05'0 0.0
2017-Nov-10 01:59N 37°55' E 023°05'0 0.0
2017-Nov-10 01:29N 37°55' E 023°05'0 0.0
2017-Nov-10 00:59N 37°55' E 023°05'0 0.0
2017-Nov-10 00:29N 37°55' E 023°05'0 0.0
2017-Nov-09 23:59N 37°55' E 023°05'0 0.0
2017-Nov-09 23:29N 37°55' E 023°05'0 0.0
2017-Nov-09 22:59N 37°55' E 023°05'0 0.0
2017-Nov-09 22:29N 37°55' E 023°05'0 0.0
2017-Nov-09 21:59N 37°55' E 023°05'0 0.0
2017-Nov-09 21:29N 37°55' E 023°05'0 0.0
2017-Nov-09 20:59N 37°55' E 023°05'0 0.0
2017-Nov-09 20:29N 37°55' E 023°05'0 0.0
2017-Nov-09 19:59N 37°55' E 023°05'0 0.0
2017-Nov-09 19:29N 37°55' E 023°05'0 0.0
2017-Nov-09 18:59N 37°55' E 023°05'0 0.0
2017-Nov-09 18:29N 37°55' E 023°05'0 0.0
2017-Nov-09 17:59N 37°55' E 023°05'0 0.0
2017-Nov-09 17:29N 37°55' E 023°05'0 0.0
2017-Nov-09 16:59N 37°55' E 023°05'0 0.0
2017-Nov-09 16:29N 37°55' E 023°05'0 0.0
2017-Nov-09 15:59N 37°55' E 023°05'0 0.0
2017-Nov-09 15:29N 37°55' E 023°05'0 0.0
2017-Nov-09 14:59N 37°55' E 023°05'0 0.0
2017-Nov-09 14:29N 37°55' E 023°05'0 0.0
2017-Nov-09 13:59N 37°55' E 023°05'0 0.0
2017-Nov-09 13:29N 37°55' E 023°05'0 0.0
2017-Nov-09 12:59N 37°55' E 023°05'0 0.0
2017-Nov-09 12:29N 37°55' E 023°05'0 0.0
2017-Nov-09 11:59N 37°55' E 023°05'  

Dump ship's entire track history